sensor_id;sensor_type;location;lat;lon;timestamp;temperature;humidity
42489;DHT22;28118;52.388;9.452;2022-10-16T00:00:39;12.40;99.90
42489;DHT22;28118;52.388;9.452;2022-10-16T00:03:07;12.40;99.90
42489;DHT22;28118;52.388;9.452;2022-10-16T00:05:39;12.30;99.90
42489;DHT22;28118;52.388;9.452;2022-10-16T00:08:07;12.20;99.90
42489;DHT22;28118;52.388;9.452;2022-10-16T00:10:34;12.10;99.90
42489;DHT22;28118;52.388;9.452;2022-10-16T00:13:01;12.10;99.90
42489;DHT22;28118;52.388;9.452;2022-10-16T00:15:28;12.10;99.90
42489;DHT22;28118;52.388;9.452;2022-10-16T00:17:55;12.10;99.90
42489;DHT22;28118;52.388;9.452;2022-10-16T00:20:21;12.10;99.90
42489;DHT22;28118;52.388;9.452;2022-10-16T00:22:48;12.10;99.90
42489;DHT22;28118;52.388;9.452;2022-10-16T00:25:15;12.20;99.90
42489;DHT22;28118;52.388;9.452;2022-10-16T00:27:41;12.20;99.90
42489;DHT22;28118;52.388;9.452;2022-10-16T00:30:08;12.20;99.90
42489;DHT22;28118;52.388;9.452;2022-10-16T00:32:35;12.30;99.90
42489;DHT22;28118;52.388;9.452;2022-10-16T00:35:01;12.30;99.90
42489;DHT22;28118;52.388;9.452;2022-10-16T00:37:30;12.30;99.90
42489;DHT22;28118;52.388;9.452;2022-10-16T00:39:56;12.30;99.90
42489;DHT22;28118;52.388;9.452;2022-10-16T00:42:23;12.30;99.90
42489;DHT22;28118;52.388;9.452;2022-10-16T00:44:53;12.30;99.90
42489;DHT22;28118;52.388;9.452;2022-10-16T00:47:30;12.40;99.90
42489;DHT22;28118;52.388;9.452;2022-10-16T00:52:28;12.40;99.90
42489;DHT22;28118;52.388;9.452;2022-10-16T00:54:56;12.40;99.90
42489;DHT22;28118;52.388;9.452;2022-10-16T00:57:24;12.40;99.90
42489;DHT22;28118;52.388;9.452;2022-10-16T00:59:51;12.50;99.90
42489;DHT22;28118;52.388;9.452;2022-10-16T01:02:18;12.50;99.90
42489;DHT22;28118;52.388;9.452;2022-10-16T01:04:48;12.40;99.90
42489;DHT22;28118;52.388;9.452;2022-10-16T01:07:40;12.40;99.90
42489;DHT22;28118;52.388;9.452;2022-10-16T01:13:33;12.30;99.90
42489;DHT22;28118;52.388;9.452;2022-10-16T01:16:07;12.30;99.90
42489;DHT22;28118;52.388;9.452;2022-10-16T01:18:43;12.60;99.90
42489;DHT22;28118;52.388;9.452;2022-10-16T01:21:22;12.70;99.90
42489;DHT22;28118;52.388;9.452;2022-10-16T01:32:08;12.80;99.90
42489;DHT22;28118;52.388;9.452;2022-10-16T01:34:49;12.80;99.90
42489;DHT22;28118;52.388;9.452;2022-10-16T01:37:27;12.80;99.90
42489;DHT22;28118;52.388;9.452;2022-10-16T01:39:59;12.80;99.90
42489;DHT22;28118;52.388;9.452;2022-10-16T01:42:33;12.70;99.90
42489;DHT22;28118;52.388;9.452;2022-10-16T01:45:02;12.70;99.90
42489;DHT22;28118;52.388;9.452;2022-10-16T01:47:33;12.60;99.90
42489;DHT22;28118;52.388;9.452;2022-10-16T01:50:03;12.60;99.90
42489;DHT22;28118;52.388;9.452;2022-10-16T01:52:32;12.60;99.90
42489;DHT22;28118;52.388;9.452;2022-10-16T01:55:02;12.60;99.90
42489;DHT22;28118;52.388;9.452;2022-10-16T01:57:30;12.50;99.90
42489;DHT22;28118;52.388;9.452;2022-10-16T02:00:02;12.50;99.90
42489;DHT22;28118;52.388;9.452;2022-10-16T02:02:30;12.50;99.90
42489;DHT22;28118;52.388;9.452;2022-10-16T02:07:44;12.40;99.90
42489;DHT22;28118;52.388;9.452;2022-10-16T02:10:11;12.30;99.90
42489;DHT22;28118;52.388;9.452;2022-10-16T02:12:40;12.20;99.90
42489;DHT22;28118;52.388;9.452;2022-10-16T02:15:09;12.20;99.90
42489;DHT22;28118;52.388;9.452;2022-10-16T02:17:36;12.10;99.90
42489;DHT22;28118;52.388;9.452;2022-10-16T02:20:03;12.10;99.90
42489;DHT22;28118;52.388;9.452;2022-10-16T02:22:36;12.10;99.90
42489;DHT22;28118;52.388;9.452;2022-10-16T02:25:12;12.30;99.90
42489;DHT22;28118;52.388;9.452;2022-10-16T02:28:10;12.30;99.90
42489;DHT22;28118;52.388;9.452;2022-10-16T02:30:47;12.40;99.90
42489;DHT22;28118;52.388;9.452;2022-10-16T02:33:16;12.30;99.90
42489;DHT22;28118;52.388;9.452;2022-10-16T02:35:45;12.40;99.90
42489;DHT22;28118;52.388;9.452;2022-10-16T02:38:14;12.30;99.90
42489;DHT22;28118;52.388;9.452;2022-10-16T02:40:41;12.30;99.90
42489;DHT22;28118;52.388;9.452;2022-10-16T02:43:09;12.20;99.90
42489;DHT22;28118;52.388;9.452;2022-10-16T02:45:36;12.20;99.90
42489;DHT22;28118;52.388;9.452;2022-10-16T02:48:03;12.10;99.90
42489;DHT22;28118;52.388;9.452;2022-10-16T02:50:29;12.10;99.90
42489;DHT22;28118;52.388;9.452;2022-10-16T02:52:56;12.00;99.90
42489;DHT22;28118;52.388;9.452;2022-10-16T02:55:23;12.00;99.90
42489;DHT22;28118;52.388;9.452;2022-10-16T02:57:49;12.00;99.90
42489;DHT22;28118;52.388;9.452;2022-10-16T03:00:17;12.00;99.90
42489;DHT22;28118;52.388;9.452;2022-10-16T03:02:44;12.00;99.90
42489;DHT22;28118;52.388;9.452;2022-10-16T03:05:11;12.10;99.90
42489;DHT22;28118;52.388;9.452;2022-10-16T03:07:37;12.10;99.90
42489;DHT22;28118;52.388;9.452;2022-10-16T03:10:04;12.20;99.90
42489;DHT22;28118;52.388;9.452;2022-10-16T03:12:31;12.20;99.90
42489;DHT22;28118;52.388;9.452;2022-10-16T03:14:58;12.20;99.90
42489;DHT22;28118;52.388;9.452;2022-10-16T03:17:25;12.20;99.90
42489;DHT22;28118;52.388;9.452;2022-10-16T03:19:52;12.10;99.90
42489;DHT22;28118;52.388;9.452;2022-10-16T03:22:19;12.10;99.90
42489;DHT22;28118;52.388;9.452;2022-10-16T03:24:45;12.20;99.90
42489;DHT22;28118;52.388;9.452;2022-10-16T03:27:12;12.20;99.90
42489;DHT22;28118;52.388;9.452;2022-10-16T03:29:39;12.20;99.90
42489;DHT22;28118;52.388;9.452;2022-10-16T03:32:05;12.10;99.90
42489;DHT22;28118;52.388;9.452;2022-10-16T03:34:32;12.10;99.90
42489;DHT22;28118;52.388;9.452;2022-10-16T03:36:59;12.00;99.90
42489;DHT22;28118;52.388;9.452;2022-10-16T03:39:25;12.00;99.90
42489;DHT22;28118;52.388;9.452;2022-10-16T03:41:52;11.90;99.90
42489;DHT22;28118;52.388;9.452;2022-10-16T03:44:18;11.90;99.90
42489;DHT22;28118;52.388;9.452;2022-10-16T03:46:45;11.90;99.90
42489;DHT22;28118;52.388;9.452;2022-10-16T03:49:11;11.80;99.90
42489;DHT22;28118;52.388;9.452;2022-10-16T03:51:38;11.90;99.90
42489;DHT22;28118;52.388;9.452;2022-10-16T03:54:05;11.90;99.90
42489;DHT22;28118;52.388;9.452;2022-10-16T03:56:31;11.90;99.90
42489;DHT22;28118;52.388;9.452;2022-10-16T03:58:58;11.90;99.90
42489;DHT22;28118;52.388;9.452;2022-10-16T04:01:25;11.90;99.90
42489;DHT22;28118;52.388;9.452;2022-10-16T04:03:51;11.80;99.90
42489;DHT22;28118;52.388;9.452;2022-10-16T04:06:18;11.90;99.90
42489;DHT22;28118;52.388;9.452;2022-10-16T04:08:45;12.00;99.90
42489;DHT22;28118;52.388;9.452;2022-10-16T04:11:11;12.00;99.90
42489;DHT22;28118;52.388;9.452;2022-10-16T04:13:38;11.90;99.90
42489;DHT22;28118;52.388;9.452;2022-10-16T04:16:05;12.00;99.90
42489;DHT22;28118;52.388;9.452;2022-10-16T04:18:31;12.00;99.90
42489;DHT22;28118;52.388;9.452;2022-10-16T04:21:07;12.00;99.90
42489;DHT22;28118;52.388;9.452;2022-10-16T04:23:34;12.00;99.90
42489;DHT22;28118;52.388;9.452;2022-10-16T04:26:01;11.90;99.90
42489;DHT22;28118;52.388;9.452;2022-10-16T04:28:28;12.00;99.90
42489;DHT22;28118;52.388;9.452;2022-10-16T04:30:55;12.00;99.90
42489;DHT22;28118;52.388;9.452;2022-10-16T04:33:22;12.00;99.90
42489;DHT22;28118;52.388;9.452;2022-10-16T04:35:55;12.00;99.90
42489;DHT22;28118;52.388;9.452;2022-10-16T04:38:22;12.00;99.90
42489;DHT22;28118;52.388;9.452;2022-10-16T04:40:48;12.00;99.90
42489;DHT22;28118;52.388;9.452;2022-10-16T04:43:15;12.00;99.90
42489;DHT22;28118;52.388;9.452;2022-10-16T04:45:41;12.00;99.90
42489;DHT22;28118;52.388;9.452;2022-10-16T04:48:08;12.00;99.90
42489;DHT22;28118;52.388;9.452;2022-10-16T04:50:35;12.10;99.90
42489;DHT22;28118;52.388;9.452;2022-10-16T04:53:01;12.10;99.90
42489;DHT22;28118;52.388;9.452;2022-10-16T04:55:28;12.10;99.90
42489;DHT22;28118;52.388;9.452;2022-10-16T04:57:55;12.00;99.90
42489;DHT22;28118;52.388;9.452;2022-10-16T05:00:21;12.00;99.90
42489;DHT22;28118;52.388;9.452;2022-10-16T05:02:50;12.00;99.90
42489;DHT22;28118;52.388;9.452;2022-10-16T05:05:17;11.90;99.90
42489;DHT22;28118;52.388;9.452;2022-10-16T05:07:46;11.90;99.90
42489;DHT22;28118;52.388;9.452;2022-10-16T05:10:13;11.90;99.90
42489;DHT22;28118;52.388;9.452;2022-10-16T05:12:40;12.00;99.90
42489;DHT22;28118;52.388;9.452;2022-10-16T05:15:07;12.00;99.90
42489;DHT22;28118;52.388;9.452;2022-10-16T05:17:33;12.00;99.90
42489;DHT22;28118;52.388;9.452;2022-10-16T05:20:00;11.90;99.90
42489;DHT22;28118;52.388;9.452;2022-10-16T05:22:27;11.90;99.90
42489;DHT22;28118;52.388;9.452;2022-10-16T05:24:53;11.90;99.90
42489;DHT22;28118;52.388;9.452;2022-10-16T05:27:20;11.90;99.90
42489;DHT22;28118;52.388;9.452;2022-10-16T05:29:47;11.90;99.90
42489;DHT22;28118;52.388;9.452;2022-10-16T05:32:18;11.80;99.90
42489;DHT22;28118;52.388;9.452;2022-10-16T05:34:45;11.70;99.90
42489;DHT22;28118;52.388;9.452;2022-10-16T05:37:12;11.70;99.90
42489;DHT22;28118;52.388;9.452;2022-10-16T05:39:39;11.70;99.90
42489;DHT22;28118;52.388;9.452;2022-10-16T05:42:06;11.70;99.90
42489;DHT22;28118;52.388;9.452;2022-10-16T05:44:33;12.00;99.90
42489;DHT22;28118;52.388;9.452;2022-10-16T05:47:04;12.00;99.90
42489;DHT22;28118;52.388;9.452;2022-10-16T05:49:31;12.10;99.90
42489;DHT22;28118;52.388;9.452;2022-10-16T05:51:58;12.10;99.90
42489;DHT22;28118;52.388;9.452;2022-10-16T05:54:24;12.20;99.90
42489;DHT22;28118;52.388;9.452;2022-10-16T05:56:51;12.20;99.90
42489;DHT22;28118;52.388;9.452;2022-10-16T05:59:17;12.30;99.90
42489;DHT22;28118;52.388;9.452;2022-10-16T06:01:44;12.40;99.90
42489;DHT22;28118;52.388;9.452;2022-10-16T06:04:11;12.40;99.90
42489;DHT22;28118;52.388;9.452;2022-10-16T06:06:37;12.40;99.90
42489;DHT22;28118;52.388;9.452;2022-10-16T06:09:04;12.50;99.90
42489;DHT22;28118;52.388;9.452;2022-10-16T06:11:32;12.60;99.90
42489;DHT22;28118;52.388;9.452;2022-10-16T06:14:01;12.60;99.90
42489;DHT22;28118;52.388;9.452;2022-10-16T06:16:29;12.60;99.90
42489;DHT22;28118;52.388;9.452;2022-10-16T06:18:56;12.70;99.90
42489;DHT22;28118;52.388;9.452;2022-10-16T06:21:24;12.80;99.90
42489;DHT22;28118;52.388;9.452;2022-10-16T06:23:52;12.90;99.90
42489;DHT22;28118;52.388;9.452;2022-10-16T06:26:20;12.90;99.90
42489;DHT22;28118;52.388;9.452;2022-10-16T06:28:48;13.00;99.90
42489;DHT22;28118;52.388;9.452;2022-10-16T06:31:15;13.00;99.90
42489;DHT22;28118;52.388;9.452;2022-10-16T06:33:42;13.10;99.90
42489;DHT22;28118;52.388;9.452;2022-10-16T06:36:14;13.20;99.90
42489;DHT22;28118;52.388;9.452;2022-10-16T06:38:41;13.30;99.90
42489;DHT22;28118;52.388;9.452;2022-10-16T06:41:13;13.30;99.90
42489;DHT22;28118;52.388;9.452;2022-10-16T06:43:40;13.40;99.90
42489;DHT22;28118;52.388;9.452;2022-10-16T06:46:10;13.50;99.90
42489;DHT22;28118;52.388;9.452;2022-10-16T06:48:37;13.60;99.90
42489;DHT22;28118;52.388;9.452;2022-10-16T06:51:11;13.60;99.90
42489;DHT22;28118;52.388;9.452;2022-10-16T06:53:43;13.80;99.90
42489;DHT22;28118;52.388;9.452;2022-10-16T06:56:29;13.80;99.90
42489;DHT22;28118;52.388;9.452;2022-10-16T06:58:57;14.00;99.90
42489;DHT22;28118;52.388;9.452;2022-10-16T07:01:26;13.90;99.90
42489;DHT22;28118;52.388;9.452;2022-10-16T07:03:53;14.00;99.90
42489;DHT22;28118;52.388;9.452;2022-10-16T07:06:22;14.00;99.90
42489;DHT22;28118;52.388;9.452;2022-10-16T07:08:49;14.00;99.90
42489;DHT22;28118;52.388;9.452;2022-10-16T07:11:18;14.00;99.90
42489;DHT22;28118;52.388;9.452;2022-10-16T07:13:46;14.10;99.90
42489;DHT22;28118;52.388;9.452;2022-10-16T07:16:23;14.20;99.90
42489;DHT22;28118;52.388;9.452;2022-10-16T07:18:50;14.20;99.90
42489;DHT22;28118;52.388;9.452;2022-10-16T07:21:21;14.30;99.90
42489;DHT22;28118;52.388;9.452;2022-10-16T07:23:52;14.40;99.90
42489;DHT22;28118;52.388;9.452;2022-10-16T07:26:20;14.50;99.90
42489;DHT22;28118;52.388;9.452;2022-10-16T07:28:47;14.50;99.90
42489;DHT22;28118;52.388;9.452;2022-10-16T07:31:15;14.50;99.90
42489;DHT22;28118;52.388;9.452;2022-10-16T07:33:43;14.70;99.90
42489;DHT22;28118;52.388;9.452;2022-10-16T07:36:14;14.80;99.90
42489;DHT22;28118;52.388;9.452;2022-10-16T07:38:42;15.10;99.90
42489;DHT22;28118;52.388;9.452;2022-10-16T07:41:11;15.20;99.90
42489;DHT22;28118;52.388;9.452;2022-10-16T07:43:39;15.30;99.90
42489;DHT22;28118;52.388;9.452;2022-10-16T07:46:06;15.40;99.90
42489;DHT22;28118;52.388;9.452;2022-10-16T07:48:34;15.40;99.90
42489;DHT22;28118;52.388;9.452;2022-10-16T07:51:03;15.50;99.90
42489;DHT22;28118;52.388;9.452;2022-10-16T07:53:31;15.60;99.90
42489;DHT22;28118;52.388;9.452;2022-10-16T07:56:04;15.70;99.90
42489;DHT22;28118;52.388;9.452;2022-10-16T07:58:33;15.80;99.90
42489;DHT22;28118;52.388;9.452;2022-10-16T08:01:04;15.80;99.90
42489;DHT22;28118;52.388;9.452;2022-10-16T08:03:31;15.70;99.90
42489;DHT22;28118;52.388;9.452;2022-10-16T08:05:58;15.70;99.90
42489;DHT22;28118;52.388;9.452;2022-10-16T08:08:26;15.60;99.90
42489;DHT22;28118;52.388;9.452;2022-10-16T08:10:53;15.60;99.90
42489;DHT22;28118;52.388;9.452;2022-10-16T08:13:20;15.50;99.90
42489;DHT22;28118;52.388;9.452;2022-10-16T08:15:47;15.40;99.90
42489;DHT22;28118;52.388;9.452;2022-10-16T08:18:15;15.40;99.90
42489;DHT22;28118;52.388;9.452;2022-10-16T08:20:43;15.40;99.90
42489;DHT22;28118;52.388;9.452;2022-10-16T08:23:11;15.40;99.90
42489;DHT22;28118;52.388;9.452;2022-10-16T08:25:39;15.40;99.90
42489;DHT22;28118;52.388;9.452;2022-10-16T08:28:09;15.60;99.90
42489;DHT22;28118;52.388;9.452;2022-10-16T08:30:37;15.70;99.90
42489;DHT22;28118;52.388;9.452;2022-10-16T08:33:04;15.80;99.90
42489;DHT22;28118;52.388;9.452;2022-10-16T08:35:32;15.90;99.90
42489;DHT22;28118;52.388;9.452;2022-10-16T08:37:58;16.00;99.90
42489;DHT22;28118;52.388;9.452;2022-10-16T08:40:28;16.10;99.90
42489;DHT22;28118;52.388;9.452;2022-10-16T08:43:24;16.10;99.90
42489;DHT22;28118;52.388;9.452;2022-10-16T08:46:15;16.20;99.90
42489;DHT22;28118;52.388;9.452;2022-10-16T08:48:48;16.20;99.90
42489;DHT22;28118;52.388;9.452;2022-10-16T08:51:24;16.30;99.90
42489;DHT22;28118;52.388;9.452;2022-10-16T08:53:53;16.30;99.90
42489;DHT22;28118;52.388;9.452;2022-10-16T08:56:21;16.40;99.90
42489;DHT22;28118;52.388;9.452;2022-10-16T08:58:48;16.40;99.90
42489;DHT22;28118;52.388;9.452;2022-10-16T09:01:17;16.40;99.90
42489;DHT22;28118;52.388;9.452;2022-10-16T09:04:04;16.50;99.90
42489;DHT22;28118;52.388;9.452;2022-10-16T09:12:31;16.80;99.90
42489;DHT22;28118;52.388;9.452;2022-10-16T09:25:32;17.30;99.90
42489;DHT22;28118;52.388;9.452;2022-10-16T09:28:00;17.40;99.90
42489;DHT22;28118;52.388;9.452;2022-10-16T09:30:28;17.50;99.90
42489;DHT22;28118;52.388;9.452;2022-10-16T09:32:57;17.50;99.90
42489;DHT22;28118;52.388;9.452;2022-10-16T09:35:40;17.40;99.90
42489;DHT22;28118;52.388;9.452;2022-10-16T09:38:08;17.50;99.90
42489;DHT22;28118;52.388;9.452;2022-10-16T09:40:39;17.40;99.90
42489;DHT22;28118;52.388;9.452;2022-10-16T09:46:19;17.20;99.90
42489;DHT22;28118;52.388;9.452;2022-10-16T09:48:49;17.30;99.90
42489;DHT22;28118;52.388;9.452;2022-10-16T09:53:49;17.40;99.90
42489;DHT22;28118;52.388;9.452;2022-10-16T09:56:26;17.30;99.90
42489;DHT22;28118;52.388;9.452;2022-10-16T09:58:58;17.30;99.90
42489;DHT22;28118;52.388;9.452;2022-10-16T10:01:40;17.30;99.90
42489;DHT22;28118;52.388;9.452;2022-10-16T10:04:07;17.40;99.90
42489;DHT22;28118;52.388;9.452;2022-10-16T10:06:37;17.70;99.90
42489;DHT22;28118;52.388;9.452;2022-10-16T10:11:54;17.80;99.90
42489;DHT22;28118;52.388;9.452;2022-10-16T10:17:09;17.50;99.90
42489;DHT22;28118;52.388;9.452;2022-10-16T10:19:51;17.50;99.90
42489;DHT22;28118;52.388;9.452;2022-10-16T10:22:41;17.30;99.90
42489;DHT22;28118;52.388;9.452;2022-10-16T10:28:05;17.50;99.90
42489;DHT22;28118;52.388;9.452;2022-10-16T10:36:24;17.00;99.90
42489;DHT22;28118;52.388;9.452;2022-10-16T10:39:11;17.00;99.90
42489;DHT22;28118;52.388;9.452;2022-10-16T10:47:52;17.60;99.90
42489;DHT22;28118;52.388;9.452;2022-10-16T11:01:48;18.80;99.90
42489;DHT22;28118;52.388;9.452;2022-10-16T11:04:32;18.50;99.90
42489;DHT22;28118;52.388;9.452;2022-10-16T11:07:05;18.30;99.90
42489;DHT22;28118;52.388;9.452;2022-10-16T11:09:46;18.20;99.90
42489;DHT22;28118;52.388;9.452;2022-10-16T11:12:20;18.30;99.90
42489;DHT22;28118;52.388;9.452;2022-10-16T11:17:55;18.40;99.90
42489;DHT22;28118;52.388;9.452;2022-10-16T11:20:31;18.20;99.90
42489;DHT22;28118;52.388;9.452;2022-10-16T11:26:01;18.70;99.90
42489;DHT22;28118;52.388;9.452;2022-10-16T11:28:38;18.90;99.90
42489;DHT22;28118;52.388;9.452;2022-10-16T11:33:45;19.00;99.90
42489;DHT22;28118;52.388;9.452;2022-10-16T11:36:29;19.00;99.90
42489;DHT22;28118;52.388;9.452;2022-10-16T11:39:02;19.20;99.90
42489;DHT22;28118;52.388;9.452;2022-10-16T11:41:44;19.00;99.90
42489;DHT22;28118;52.388;9.452;2022-10-16T11:49:57;19.50;99.90
42489;DHT22;28118;52.388;9.452;2022-10-16T11:55:21;18.90;99.90
42489;DHT22;28118;52.388;9.452;2022-10-16T11:57:57;19.00;99.90
42489;DHT22;28118;52.388;9.452;2022-10-16T12:00:29;18.90;99.90
42489;DHT22;28118;52.388;9.452;2022-10-16T12:03:17;18.80;99.90
42489;DHT22;28118;52.388;9.452;2022-10-16T12:06:20;19.10;99.90
42489;DHT22;28118;52.388;9.452;2022-10-16T12:08:51;19.60;99.90
42489;DHT22;28118;52.388;9.452;2022-10-16T12:16:57;19.70;99.90
42489;DHT22;28118;52.388;9.452;2022-10-16T12:19:27;19.60;99.90
42489;DHT22;28118;52.388;9.452;2022-10-16T12:21:57;19.80;99.90
42489;DHT22;28118;52.388;9.452;2022-10-16T12:24:36;19.90;99.90
42489;DHT22;28118;52.388;9.452;2022-10-16T12:27:06;19.20;99.90
42489;DHT22;28118;52.388;9.452;2022-10-16T12:29:41;19.10;99.90
42489;DHT22;28118;52.388;9.452;2022-10-16T12:32:31;19.40;99.90
42489;DHT22;28118;52.388;9.452;2022-10-16T12:35:20;19.80;99.90
42489;DHT22;28118;52.388;9.452;2022-10-16T12:37:47;19.90;99.90
42489;DHT22;28118;52.388;9.452;2022-10-16T12:42:51;20.20;99.90
42489;DHT22;28118;52.388;9.452;2022-10-16T12:45:24;19.80;99.90
42489;DHT22;28118;52.388;9.452;2022-10-16T12:47:53;19.80;99.90
42489;DHT22;28118;52.388;9.452;2022-10-16T12:53:00;19.90;99.90
42489;DHT22;28118;52.388;9.452;2022-10-16T12:55:35;19.90;99.90
42489;DHT22;28118;52.388;9.452;2022-10-16T12:58:31;19.90;99.90
42489;DHT22;28118;52.388;9.452;2022-10-16T13:01:39;19.80;99.90
42489;DHT22;28118;52.388;9.452;2022-10-16T13:06:45;19.90;99.90
42489;DHT22;28118;52.388;9.452;2022-10-16T13:09:44;20.00;99.90
42489;DHT22;28118;52.388;9.452;2022-10-16T13:18:19;20.10;99.90
42489;DHT22;28118;52.388;9.452;2022-10-16T13:21:12;19.80;99.90
42489;DHT22;28118;52.388;9.452;2022-10-16T13:28:59;19.90;99.90
42489;DHT22;28118;52.388;9.452;2022-10-16T13:31:28;19.80;99.90
42489;DHT22;28118;52.388;9.452;2022-10-16T13:33:57;19.50;99.90
42489;DHT22;28118;52.388;9.452;2022-10-16T13:36:28;19.40;99.90
42489;DHT22;28118;52.388;9.452;2022-10-16T13:39:19;19.30;99.90
42489;DHT22;28118;52.388;9.452;2022-10-16T13:42:09;19.10;99.90
42489;DHT22;28118;52.388;9.452;2022-10-16T13:44:49;19.10;99.90
42489;DHT22;28118;52.388;9.452;2022-10-16T13:47:22;19.00;99.90
42489;DHT22;28118;52.388;9.452;2022-10-16T13:50:02;19.00;99.90
42489;DHT22;28118;52.388;9.452;2022-10-16T13:52:30;18.90;99.90
42489;DHT22;28118;52.388;9.452;2022-10-16T13:54:57;18.90;99.90
42489;DHT22;28118;52.388;9.452;2022-10-16T13:57:27;18.70;99.90
42489;DHT22;28118;52.388;9.452;2022-10-16T13:59:55;18.70;99.90
42489;DHT22;28118;52.388;9.452;2022-10-16T14:02:31;18.60;99.90
42489;DHT22;28118;52.388;9.452;2022-10-16T14:05:02;18.60;99.90
42489;DHT22;28118;52.388;9.452;2022-10-16T14:07:32;18.50;99.90
42489;DHT22;28118;52.388;9.452;2022-10-16T14:10:07;18.50;99.90
42489;DHT22;28118;52.388;9.452;2022-10-16T14:12:45;18.50;99.90
42489;DHT22;28118;52.388;9.452;2022-10-16T14:15:17;18.60;99.90
42489;DHT22;28118;52.388;9.452;2022-10-16T14:17:48;18.50;99.90
42489;DHT22;28118;52.388;9.452;2022-10-16T14:20:16;18.50;99.90
42489;DHT22;28118;52.388;9.452;2022-10-16T14:22:44;18.60;99.90
42489;DHT22;28118;52.388;9.452;2022-10-16T14:25:20;18.50;99.90
42489;DHT22;28118;52.388;9.452;2022-10-16T14:28:02;18.50;99.90
42489;DHT22;28118;52.388;9.452;2022-10-16T14:30:31;18.50;99.90
42489;DHT22;28118;52.388;9.452;2022-10-16T14:33:01;18.50;99.90
42489;DHT22;28118;52.388;9.452;2022-10-16T14:35:36;18.40;99.90
42489;DHT22;28118;52.388;9.452;2022-10-16T14:38:05;18.40;99.90
42489;DHT22;28118;52.388;9.452;2022-10-16T14:40:36;18.50;99.90
42489;DHT22;28118;52.388;9.452;2022-10-16T14:43:04;18.40;99.90
42489;DHT22;28118;52.388;9.452;2022-10-16T14:45:34;18.40;99.90
42489;DHT22;28118;52.388;9.452;2022-10-16T14:48:05;18.40;99.90
42489;DHT22;28118;52.388;9.452;2022-10-16T14:50:45;18.40;99.90
42489;DHT22;28118;52.388;9.452;2022-10-16T14:53:12;18.30;99.90
42489;DHT22;28118;52.388;9.452;2022-10-16T14:55:40;18.30;99.90
42489;DHT22;28118;52.388;9.452;2022-10-16T14:58:18;18.30;99.90
42489;DHT22;28118;52.388;9.452;2022-10-16T15:00:46;18.30;99.90
42489;DHT22;28118;52.388;9.452;2022-10-16T15:03:13;18.30;99.90
42489;DHT22;28118;52.388;9.452;2022-10-16T15:05:40;18.20;99.90
42489;DHT22;28118;52.388;9.452;2022-10-16T15:08:07;18.20;99.90
42489;DHT22;28118;52.388;9.452;2022-10-16T15:10:39;18.20;99.90
42489;DHT22;28118;52.388;9.452;2022-10-16T15:13:05;18.10;99.90
42489;DHT22;28118;52.388;9.452;2022-10-16T15:15:35;18.10;99.90
42489;DHT22;28118;52.388;9.452;2022-10-16T15:18:04;18.00;99.90
42489;DHT22;28118;52.388;9.452;2022-10-16T15:20:33;18.00;99.90
42489;DHT22;28118;52.388;9.452;2022-10-16T15:23:15;17.90;99.90
42489;DHT22;28118;52.388;9.452;2022-10-16T15:25:55;17.90;99.90
42489;DHT22;28118;52.388;9.452;2022-10-16T15:28:23;17.90;99.90
42489;DHT22;28118;52.388;9.452;2022-10-16T15:30:52;17.80;99.90
42489;DHT22;28118;52.388;9.452;2022-10-16T15:33:25;17.80;99.90
42489;DHT22;28118;52.388;9.452;2022-10-16T15:35:54;17.80;99.90
42489;DHT22;28118;52.388;9.452;2022-10-16T15:38:22;17.80;99.90
42489;DHT22;28118;52.388;9.452;2022-10-16T15:40:49;17.70;99.90
42489;DHT22;28118;52.388;9.452;2022-10-16T15:43:17;17.50;99.90
42489;DHT22;28118;52.388;9.452;2022-10-16T15:46:04;17.60;99.90
42489;DHT22;28118;52.388;9.452;2022-10-16T15:48:33;17.50;99.90
42489;DHT22;28118;52.388;9.452;2022-10-16T15:51:00;17.30;99.90
42489;DHT22;28118;52.388;9.452;2022-10-16T15:53:26;17.20;99.90
42489;DHT22;28118;52.388;9.452;2022-10-16T15:55:53;17.00;99.90
42489;DHT22;28118;52.388;9.452;2022-10-16T15:58:20;17.30;99.90
42489;DHT22;28118;52.388;9.452;2022-10-16T16:00:54;17.30;99.90
42489;DHT22;28118;52.388;9.452;2022-10-16T16:03:21;17.20;99.90
42489;DHT22;28118;52.388;9.452;2022-10-16T16:05:48;17.10;99.90
42489;DHT22;28118;52.388;9.452;2022-10-16T16:08:14;16.80;99.90
42489;DHT22;28118;52.388;9.452;2022-10-16T16:10:41;16.50;99.90
42489;DHT22;28118;52.388;9.452;2022-10-16T16:13:08;16.10;99.90
42489;DHT22;28118;52.388;9.452;2022-10-16T16:15:36;16.00;99.90
42489;DHT22;28118;52.388;9.452;2022-10-16T16:18:04;15.80;99.90
42489;DHT22;28118;52.388;9.452;2022-10-16T16:20:37;15.60;99.90
42489;DHT22;28118;52.388;9.452;2022-10-16T16:23:03;15.40;99.90
42489;DHT22;28118;52.388;9.452;2022-10-16T16:25:30;15.40;99.90
42489;DHT22;28118;52.388;9.452;2022-10-16T16:27:57;15.20;99.90
42489;DHT22;28118;52.388;9.452;2022-10-16T16:30:23;15.10;99.90
42489;DHT22;28118;52.388;9.452;2022-10-16T16:32:53;15.00;99.90
42489;DHT22;28118;52.388;9.452;2022-10-16T16:35:20;14.80;99.90
42489;DHT22;28118;52.388;9.452;2022-10-16T16:37:47;14.70;99.90
42489;DHT22;28118;52.388;9.452;2022-10-16T16:40:14;14.60;99.90
42489;DHT22;28118;52.388;9.452;2022-10-16T16:42:41;14.60;99.90
42489;DHT22;28118;52.388;9.452;2022-10-16T16:45:08;14.60;99.90
42489;DHT22;28118;52.388;9.452;2022-10-16T16:47:35;14.60;99.90
42489;DHT22;28118;52.388;9.452;2022-10-16T16:50:01;14.60;99.90
42489;DHT22;28118;52.388;9.452;2022-10-16T16:52:31;14.60;99.90
42489;DHT22;28118;52.388;9.452;2022-10-16T16:54:57;14.60;99.90
42489;DHT22;28118;52.388;9.452;2022-10-16T16:57:24;14.60;99.90
42489;DHT22;28118;52.388;9.452;2022-10-16T16:59:51;14.60;99.90
42489;DHT22;28118;52.388;9.452;2022-10-16T17:02:18;14.60;99.90
42489;DHT22;28118;52.388;9.452;2022-10-16T17:04:45;14.60;99.90
42489;DHT22;28118;52.388;9.452;2022-10-16T17:07:12;14.50;99.90
42489;DHT22;28118;52.388;9.452;2022-10-16T17:09:38;14.50;99.90
42489;DHT22;28118;52.388;9.452;2022-10-16T17:12:05;14.50;99.90
42489;DHT22;28118;52.388;9.452;2022-10-16T17:14:31;14.40;99.90
42489;DHT22;28118;52.388;9.452;2022-10-16T17:16:58;14.50;99.90
42489;DHT22;28118;52.388;9.452;2022-10-16T17:19:25;14.40;99.90
42489;DHT22;28118;52.388;9.452;2022-10-16T17:21:52;14.50;99.90
42489;DHT22;28118;52.388;9.452;2022-10-16T17:24:19;14.50;99.90
42489;DHT22;28118;52.388;9.452;2022-10-16T17:26:46;14.60;99.90
42489;DHT22;28118;52.388;9.452;2022-10-16T17:29:15;14.60;99.90
42489;DHT22;28118;52.388;9.452;2022-10-16T17:31:44;14.60;99.90
42489;DHT22;28118;52.388;9.452;2022-10-16T17:34:11;14.50;99.90
42489;DHT22;28118;52.388;9.452;2022-10-16T17:36:39;14.50;99.90
42489;DHT22;28118;52.388;9.452;2022-10-16T17:39:12;14.50;99.90
42489;DHT22;28118;52.388;9.452;2022-10-16T17:41:39;14.50;99.90